logo
Search for airport 
image banner adimage banner adimage banner ad
image banner ad

FA0401 - Silver Water Holdings Helistop

Located in , South Africa

ICAO - , IATA -

Data provided by Airmate  

General information

Coordinates: S25°16'44" E30°59'55"
Elevation is 3107 feet MSL.
 
View others Airports in Mpumalanga

Operational data

Special qualification required
Current time UTC:
Current local time:
METAR: FAKN 251600Z AUTO 08007KT //// // ////// 19/12 Q1025
TAF: TAF FAKN 250900Z 2510/2518 VRB03KT CAVOK TX23/2512Z TN17/2518Z
View NOTAMs / SUP AIP / TFR affecting this airport [VIEW]
Communications frequencies: [VIEW]

Runways:

Airport contact information

Address: South Africa

Satellite view of FA0401